sensor_id;sensor_type;location;lat;lon;timestamp;pressure;altitude;pressure_sealevel;temperature;humidity
55070;BME280;40967;52.070;8.596;2023-07-30T00:01:40;99803.72;;;17.51;100.00
55070;BME280;40967;52.070;8.596;2023-07-30T00:04:06;99787.78;;;17.44;100.00
55070;BME280;40967;52.070;8.596;2023-07-30T00:06:31;99796.94;;;17.48;100.00
55070;BME280;40967;52.070;8.596;2023-07-30T00:08:56;99803.41;;;17.44;100.00
55070;BME280;40967;52.070;8.596;2023-07-30T00:11:22;99803.41;;;17.44;100.00
55070;BME280;40967;52.070;8.596;2023-07-30T00:13:47;99805.34;;;17.43;100.00
55070;BME280;40967;52.070;8.596;2023-07-30T00:16:13;99789.22;;;17.42;100.00
55070;BME280;40967;52.070;8.596;2023-07-30T00:18:38;99798.59;;;17.41;100.00
55070;BME280;40967;52.070;8.596;2023-07-30T00:21:04;99813.56;;;17.43;100.00
55070;BME280;40967;52.070;8.596;2023-07-30T00:23:29;99805.69;;;17.42;100.00
55070;BME280;40967;52.070;8.596;2023-07-30T00:25:54;99806.22;;;17.35;100.00
55070;BME280;40967;52.070;8.596;2023-07-30T00:28:20;99819.72;;;17.40;100.00
55070;BME280;40967;52.070;8.596;2023-07-30T00:30:46;99804.44;;;17.31;100.00
55070;BME280;40967;52.070;8.596;2023-07-30T00:33:11;99819.44;;;17.33;100.00
55070;BME280;40967;52.070;8.596;2023-07-30T00:35:37;99815.09;;;17.32;100.00
55070;BME280;40967;52.070;8.596;2023-07-30T00:38:02;99822.03;;;17.30;100.00
55070;BME280;40967;52.070;8.596;2023-07-30T00:40:27;99825.94;;;17.29;100.00
55070;BME280;40967;52.070;8.596;2023-07-30T00:42:53;99827.72;;;17.25;100.00
55070;BME280;40967;52.070;8.596;2023-07-30T00:45:18;99821.59;;;17.19;100.00
55070;BME280;40967;52.070;8.596;2023-07-30T00:47:44;99825.03;;;17.16;100.00
55070;BME280;40967;52.070;8.596;2023-07-30T00:50:11;99823.56;;;17.10;100.00
55070;BME280;40967;52.070;8.596;2023-07-30T00:52:38;99821.03;;;17.05;100.00
55070;BME280;40967;52.070;8.596;2023-07-30T00:55:04;99820.69;;;17.07;100.00
55070;BME280;40967;52.070;8.596;2023-07-30T00:57:30;99827.66;;;17.04;100.00
55070;BME280;40967;52.070;8.596;2023-07-30T00:59:56;99820.41;;;16.99;100.00
55070;BME280;40967;52.070;8.596;2023-07-30T01:02:22;99825.53;;;17.01;100.00
55070;BME280;40967;52.070;8.596;2023-07-30T01:04:48;99829.44;;;17.00;100.00
55070;BME280;40967;52.070;8.596;2023-07-30T01:07:13;99845.25;;;16.94;100.00
55070;BME280;40967;52.070;8.596;2023-07-30T01:09:39;99831.38;;;16.91;100.00
55070;BME280;40967;52.070;8.596;2023-07-30T01:12:05;99843.50;;;16.90;100.00
55070;BME280;40967;52.070;8.596;2023-07-30T01:14:32;99838.34;;;16.88;100.00
55070;BME280;40967;52.070;8.596;2023-07-30T01:16:58;99828.50;;;16.87;100.00
55070;BME280;40967;52.070;8.596;2023-07-30T01:19:23;99848.00;;;16.86;100.00
55070;BME280;40967;52.070;8.596;2023-07-30T01:21:49;99852.38;;;16.87;100.00
55070;BME280;40967;52.070;8.596;2023-07-30T01:24:14;99855.13;;;16.87;100.00
55070;BME280;40967;52.070;8.596;2023-07-30T01:26:44;99863.34;;;16.78;100.00
55070;BME280;40967;52.070;8.596;2023-07-30T01:32:05;99862.91;;;16.68;100.00
55070;BME280;40967;52.070;8.596;2023-07-30T01:34:34;99855.78;;;16.67;100.00
55070;BME280;40967;52.070;8.596;2023-07-30T01:37:00;99861.94;;;16.64;100.00
55070;BME280;40967;52.070;8.596;2023-07-30T01:39:27;99870.31;;;16.67;100.00
55070;BME280;40967;52.070;8.596;2023-07-30T01:41:54;99872.88;;;16.64;100.00
55070;BME280;40967;52.070;8.596;2023-07-30T01:44:20;99869.66;;;16.62;100.00
55070;BME280;40967;52.070;8.596;2023-07-30T01:46:45;99871.25;;;16.63;100.00
55070;BME280;40967;52.070;8.596;2023-07-30T01:49:10;99867.41;;;16.64;100.00
55070;BME280;40967;52.070;8.596;2023-07-30T01:51:36;99871.25;;;16.63;100.00
55070;BME280;40967;52.070;8.596;2023-07-30T01:54:04;99871.75;;;16.56;100.00
55070;BME280;40967;52.070;8.596;2023-07-30T01:56:29;99875.97;;;16.54;100.00
55070;BME280;40967;52.070;8.596;2023-07-30T01:58:55;99868.22;;;16.47;100.00
55070;BME280;40967;52.070;8.596;2023-07-30T02:01:20;99865.28;;;16.44;100.00
55070;BME280;40967;52.070;8.596;2023-07-30T02:03:46;99860.31;;;16.37;100.00
55070;BME280;40967;52.070;8.596;2023-07-30T02:06:13;99869.84;;;16.40;100.00
55070;BME280;40967;52.070;8.596;2023-07-30T02:08:38;99874.81;;;16.38;100.00
55070;BME280;40967;52.070;8.596;2023-07-30T02:11:04;99866.59;;;16.38;100.00
55070;BME280;40967;52.070;8.596;2023-07-30T02:13:29;99864.03;;;16.33;100.00
55070;BME280;40967;52.070;8.596;2023-07-30T02:15:54;99861.91;;;16.30;100.00
55070;BME280;40967;52.070;8.596;2023-07-30T02:18:20;99866.28;;;16.31;100.00
55070;BME280;40967;52.070;8.596;2023-07-30T02:20:45;99867.09;;;16.23;100.00
55070;BME280;40967;52.070;8.596;2023-07-30T02:23:11;99873.53;;;16.27;100.00
55070;BME280;40967;52.070;8.596;2023-07-30T02:25:37;99864.81;;;16.25;100.00
55070;BME280;40967;52.070;8.596;2023-07-30T02:28:03;99873.38;;;16.23;100.00
55070;BME280;40967;52.070;8.596;2023-07-30T02:30:28;99880.47;;;16.24;100.00
55070;BME280;40967;52.070;8.596;2023-07-30T02:32:53;99878.06;;;16.23;100.00
55070;BME280;40967;52.070;8.596;2023-07-30T02:35:19;99869.34;;;16.21;100.00
55070;BME280;40967;52.070;8.596;2023-07-30T02:37:44;99866.13;;;16.19;100.00
55070;BME280;40967;52.070;8.596;2023-07-30T02:40:10;99856.94;;;16.15;100.00
55070;BME280;40967;52.070;8.596;2023-07-30T02:42:36;99865.66;;;16.17;100.00
55070;BME280;40967;52.070;8.596;2023-07-30T02:45:01;99861.31;;;16.16;100.00
55070;BME280;40967;52.070;8.596;2023-07-30T02:47:26;99856.94;;;16.06;100.00
55070;BME280;40967;52.070;8.596;2023-07-30T02:49:53;99859.34;;;16.08;100.00
55070;BME280;40967;52.070;8.596;2023-07-30T02:52:19;99867.25;;;16.09;100.00
55070;BME280;40967;52.070;8.596;2023-07-30T02:54:44;99865.66;;;16.08;100.00
55070;BME280;40967;52.070;8.596;2023-07-30T02:57:10;99866.28;;;16.05;100.00
55070;BME280;40967;52.070;8.596;2023-07-30T02:59:36;99868.53;;;16.03;100.00
55070;BME280;40967;52.070;8.596;2023-07-30T03:02:02;99865.00;;;16.03;100.00
55070;BME280;40967;52.070;8.596;2023-07-30T03:04:30;99863.41;;;16.02;100.00
55070;BME280;40967;52.070;8.596;2023-07-30T03:06:55;99864.66;;;16.04;100.00
55070;BME280;40967;52.070;8.596;2023-07-30T03:09:21;99867.41;;;16.04;100.00
55070;BME280;40967;52.070;8.596;2023-07-30T03:11:46;99870.78;;;16.01;100.00
55070;BME280;40967;52.070;8.596;2023-07-30T03:14:12;99872.72;;;16.01;100.00
55070;BME280;40967;52.070;8.596;2023-07-30T03:16:37;99871.09;;;16.00;100.00
55070;BME280;40967;52.070;8.596;2023-07-30T03:19:02;99872.22;;;15.99;100.00
55070;BME280;40967;52.070;8.596;2023-07-30T03:21:28;99876.09;;;15.98;100.00
55070;BME280;40967;52.070;8.596;2023-07-30T03:23:53;99879.97;;;15.97;100.00
55070;BME280;40967;52.070;8.596;2023-07-30T03:26:18;99874.34;;;15.93;100.00
55070;BME280;40967;52.070;8.596;2023-07-30T03:28:44;99876.09;;;15.89;100.00
55070;BME280;40967;52.070;8.596;2023-07-30T03:31:10;99886.69;;;15.90;100.00
55070;BME280;40967;52.070;8.596;2023-07-30T03:33:36;99882.53;;;15.84;100.00
55070;BME280;40967;52.070;8.596;2023-07-30T03:36:04;99884.78;;;15.82;100.00
55070;BME280;40967;52.070;8.596;2023-07-30T03:38:29;99879.91;;;15.79;100.00
55070;BME280;40967;52.070;8.596;2023-07-30T03:40:55;99885.22;;;15.76;100.00
55070;BME280;40967;52.070;8.596;2023-07-30T03:43:20;99889.09;;;15.75;100.00
55070;BME280;40967;52.070;8.596;2023-07-30T03:45:46;99890.53;;;15.72;100.00
55070;BME280;40967;52.070;8.596;2023-07-30T03:48:11;99888.91;;;15.71;100.00
55070;BME280;40967;52.070;8.596;2023-07-30T03:50:36;99897.78;;;15.68;100.00
55070;BME280;40967;52.070;8.596;2023-07-30T03:53:02;99894.06;;;15.64;100.00
55070;BME280;40967;52.070;8.596;2023-07-30T03:55:27;99898.53;;;15.60;100.00
55070;BME280;40967;52.070;8.596;2023-07-30T03:57:53;99888.25;;;15.57;100.00
55070;BME280;40967;52.070;8.596;2023-07-30T04:00:19;99891.28;;;15.56;100.00
55070;BME280;40967;52.070;8.596;2023-07-30T04:02:44;99894.34;;;15.54;100.00
55070;BME280;40967;52.070;8.596;2023-07-30T04:05:09;99889.19;;;15.53;100.00
55070;BME280;40967;52.070;8.596;2023-07-30T04:07:35;99894.50;;;15.49;100.00
55070;BME280;40967;52.070;8.596;2023-07-30T04:10:00;99897.22;;;15.49;100.00
55070;BME280;40967;52.070;8.596;2023-07-30T04:12:26;99893.19;;;15.47;100.00
55070;BME280;40967;52.070;8.596;2023-07-30T04:14:51;99894.31;;;15.46;100.00
55070;BME280;40967;52.070;8.596;2023-07-30T04:17:16;99888.69;;;15.42;100.00
55070;BME280;40967;52.070;8.596;2023-07-30T04:19:42;99897.69;;;15.43;100.00
55070;BME280;40967;52.070;8.596;2023-07-30T04:22:07;99891.09;;;15.44;100.00
55070;BME280;40967;52.070;8.596;2023-07-30T04:24:32;99891.22;;;15.39;100.00
55070;BME280;40967;52.070;8.596;2023-07-30T04:26:58;99899.41;;;15.39;100.00
55070;BME280;40967;52.070;8.596;2023-07-30T04:29:23;99894.75;;;15.39;100.00
55070;BME280;40967;52.070;8.596;2023-07-30T04:31:51;99872.66;;;15.27;100.00
55070;BME280;40967;52.070;8.596;2023-07-30T04:34:17;99897.50;;;15.39;100.00
55070;BME280;40967;52.070;8.596;2023-07-30T04:36:42;99896.69;;;15.39;100.00
55070;BME280;40967;52.070;8.596;2023-07-30T04:39:08;99891.22;;;15.39;100.00
55070;BME280;40967;52.070;8.596;2023-07-30T04:41:33;99896.69;;;15.39;100.00
55070;BME280;40967;52.070;8.596;2023-07-30T04:43:58;99903.56;;;15.36;100.00
55070;BME280;40967;52.070;8.596;2023-07-30T04:46:24;99899.72;;;15.37;100.00
55070;BME280;40967;52.070;8.596;2023-07-30T04:48:50;99895.06;;;15.38;100.00
55070;BME280;40967;52.070;8.596;2023-07-30T04:51:16;99892.78;;;15.31;100.00
55070;BME280;40967;52.070;8.596;2023-07-30T04:53:41;99899.25;;;15.35;100.00
55070;BME280;40967;52.070;8.596;2023-07-30T04:56:07;99902.47;;;15.37;100.00
55070;BME280;40967;52.070;8.596;2023-07-30T04:58:32;99899.56;;;15.34;100.00
55070;BME280;40967;52.070;8.596;2023-07-30T05:00:57;99901.53;;;15.42;100.00
55070;BME280;40967;52.070;8.596;2023-07-30T05:03:23;99907.81;;;15.42;100.00
55070;BME280;40967;52.070;8.596;2023-07-30T05:05:48;99917.31;;;15.45;100.00
55070;BME280;40967;52.070;8.596;2023-07-30T05:08:13;99911.50;;;15.46;100.00
55070;BME280;40967;52.070;8.596;2023-07-30T05:10:39;99907.19;;;15.45;100.00
55070;BME280;40967;52.070;8.596;2023-07-30T05:13:04;99914.41;;;15.50;100.00
55070;BME280;40967;52.070;8.596;2023-07-30T05:15:29;99911.41;;;15.51;100.00
55070;BME280;40967;52.070;8.596;2023-07-30T05:17:55;99907.69;;;15.56;100.00
55070;BME280;40967;52.070;8.596;2023-07-30T05:20:20;99904.31;;;15.59;100.00
55070;BME280;40967;52.070;8.596;2023-07-30T05:22:45;99885.97;;;15.51;100.00
55070;BME280;40967;52.070;8.596;2023-07-30T05:25:11;99902.25;;;15.64;100.00
55070;BME280;40967;52.070;8.596;2023-07-30T05:27:37;99890.81;;;15.62;100.00
55070;BME280;40967;52.070;8.596;2023-07-30T05:30:03;99907.09;;;15.67;100.00
55070;BME280;40967;52.070;8.596;2023-07-30T05:32:28;99904.66;;;15.66;100.00
55070;BME280;40967;52.070;8.596;2023-07-30T05:34:54;99909.81;;;15.67;100.00
55070;BME280;40967;52.070;8.596;2023-07-30T05:37:19;99908.38;;;15.70;100.00
55070;BME280;40967;52.070;8.596;2023-07-30T05:39:44;99907.56;;;15.69;100.00
55070;BME280;40967;52.070;8.596;2023-07-30T05:42:10;99913.03;;;15.69;100.00
55070;BME280;40967;52.070;8.596;2023-07-30T05:44:35;99903.38;;;15.63;100.00
55070;BME280;40967;52.070;8.596;2023-07-30T05:47:00;99899.84;;;15.63;100.00
55070;BME280;40967;52.070;8.596;2023-07-30T05:49:26;99902.91;;;15.70;100.00
55070;BME280;40967;52.070;8.596;2023-07-30T05:51:51;99915.13;;;15.72;100.00
55070;BME280;40967;52.070;8.596;2023-07-30T05:54:17;99915.63;;;15.74;100.00
55070;BME280;40967;52.070;8.596;2023-07-30T05:56:43;99915.81;;;15.78;100.00
55070;BME280;40967;52.070;8.596;2023-07-30T05:59:08;99911.16;;;15.78;100.00
55070;BME280;40967;52.070;8.596;2023-07-30T06:01:33;99917.09;;;15.80;100.00
55070;BME280;40967;52.070;8.596;2023-07-30T06:03:59;99920.00;;;15.84;100.00
55070;BME280;40967;52.070;8.596;2023-07-30T06:06:28;99888.44;;;15.69;100.00
55070;BME280;40967;52.070;8.596;2023-07-30T06:08:54;99919.03;;;15.88;100.00
55070;BME280;40967;52.070;8.596;2023-07-30T06:11:20;99927.56;;;15.87;100.00
55070;BME280;40967;52.070;8.596;2023-07-30T06:13:48;99926.16;;;15.89;100.00
55070;BME280;40967;52.070;8.596;2023-07-30T06:16:14;99921.63;;;15.93;100.00
55070;BME280;40967;52.070;8.596;2023-07-30T06:18:40;99932.41;;;15.99;100.00
55070;BME280;40967;52.070;8.596;2023-07-30T06:21:05;99937.09;;;15.98;100.00
55070;BME280;40967;52.070;8.596;2023-07-30T06:23:30;99936.63;;;16.05;100.00
55070;BME280;40967;52.070;8.596;2023-07-30T06:25:56;99935.50;;;16.06;100.00
55070;BME280;40967;52.070;8.596;2023-07-30T06:28:21;99933.09;;;16.13;100.00
55070;BME280;40967;52.070;8.596;2023-07-30T06:30:46;99926.66;;;16.17;100.00
55070;BME280;40967;52.070;8.596;2023-07-30T06:33:12;99928.09;;;16.15;100.00
55070;BME280;40967;52.070;8.596;2023-07-30T06:35:37;99932.63;;;16.19;100.00
55070;BME280;40967;52.070;8.596;2023-07-30T06:38:03;99927.31;;;16.23;100.00
55070;BME280;40967;52.070;8.596;2023-07-30T06:40:28;99931.34;;;16.34;100.00
55070;BME280;40967;52.070;8.596;2023-07-30T06:42:53;99936.16;;;16.37;100.00
55070;BME280;40967;52.070;8.596;2023-07-30T06:45:19;99937.78;;;16.38;100.00
55070;BME280;40967;52.070;8.596;2023-07-30T06:47:45;99937.63;;;16.43;100.00
55070;BME280;40967;52.070;8.596;2023-07-30T06:50:10;99944.25;;;16.42;100.00
55070;BME280;40967;52.070;8.596;2023-07-30T06:52:36;99944.13;;;16.47;100.00
55070;BME280;40967;52.070;8.596;2023-07-30T06:55:02;99948.59;;;16.43;100.00
55070;BME280;40967;52.070;8.596;2023-07-30T06:57:31;99958.41;;;16.44;100.00
55070;BME280;40967;52.070;8.596;2023-07-30T06:59:56;99961.94;;;16.44;100.00
55070;BME280;40967;52.070;8.596;2023-07-30T07:02:23;99942.28;;;16.42;100.00
55070;BME280;40967;52.070;8.596;2023-07-30T07:04:48;99952.34;;;16.47;100.00
55070;BME280;40967;52.070;8.596;2023-07-30T07:07:14;99958.91;;;16.54;100.00
55070;BME280;40967;52.070;8.596;2023-07-30T07:09:39;99959.72;;;16.63;100.00
55070;BME280;40967;52.070;8.596;2023-07-30T07:12:05;99961.03;;;16.74;100.00
55070;BME280;40967;52.070;8.596;2023-07-30T07:14:31;99957.94;;;16.76;100.00
55070;BME280;40967;52.070;8.596;2023-07-30T07:16:56;99964.56;;;16.83;100.00
55070;BME280;40967;52.070;8.596;2023-07-30T07:19:22;99979.03;;;16.84;100.00
55070;BME280;40967;52.070;8.596;2023-07-30T07:21:47;99977.94;;;16.85;100.00
55070;BME280;40967;52.070;8.596;2023-07-30T07:24:13;99971.31;;;16.94;100.00
55070;BME280;40967;52.070;8.596;2023-07-30T07:26:38;99980.00;;;17.05;100.00
55070;BME280;40967;52.070;8.596;2023-07-30T07:29:03;99971.91;;;17.17;100.00
55070;BME280;40967;52.070;8.596;2023-07-30T07:31:29;99973.84;;;17.25;100.00
55070;BME280;40967;52.070;8.596;2023-07-30T07:33:54;99977.66;;;17.33;99.78
55070;BME280;40967;52.070;8.596;2023-07-30T07:36:22;99987.50;;;17.42;98.97
55070;BME280;40967;52.070;8.596;2023-07-30T07:38:48;99977.00;;;17.44;98.25
55070;BME280;40967;52.070;8.596;2023-07-30T07:41:15;99992.47;;;17.57;97.79
55070;BME280;40967;52.070;8.596;2023-07-30T07:43:44;99987.84;;;17.49;97.31
55070;BME280;40967;52.070;8.596;2023-07-30T07:46:12;99987.84;;;17.49;97.01
55070;BME280;40967;52.070;8.596;2023-07-30T07:48:41;99983.47;;;17.40;96.41
55070;BME280;40967;52.070;8.596;2023-07-30T07:51:07;99982.53;;;17.36;96.44
55070;BME280;40967;52.070;8.596;2023-07-30T07:53:33;99988.28;;;17.43;96.84
55070;BME280;40967;52.070;8.596;2023-07-30T07:55:58;99984.44;;;17.44;96.72
55070;BME280;40967;52.070;8.596;2023-07-30T07:58:27;99982.78;;;17.43;97.18
55070;BME280;40967;52.070;8.596;2023-07-30T08:00:57;99975.56;;;17.47;97.09
55070;BME280;40967;52.070;8.596;2023-07-30T08:03:23;99988.63;;;17.50;96.86
55070;BME280;40967;52.070;8.596;2023-07-30T08:05:49;99983.59;;;17.43;96.39
55070;BME280;40967;52.070;8.596;2023-07-30T08:08:15;99979.91;;;17.39;96.42
55070;BME280;40967;52.070;8.596;2023-07-30T08:10:40;99988.94;;;17.48;96.15
55070;BME280;40967;52.070;8.596;2023-07-30T08:13:11;99985.56;;;17.51;95.26
55070;BME280;40967;52.070;8.596;2023-07-30T08:15:37;99990.38;;;17.54;95.19
55070;BME280;40967;52.070;8.596;2023-07-30T08:18:02;99985.38;;;17.56;95.13
55070;BME280;40967;52.070;8.596;2023-07-30T08:20:27;99980.97;;;17.64;94.62
55070;BME280;40967;52.070;8.596;2023-07-30T08:22:53;99980.50;;;17.62;94.37
55070;BME280;40967;52.070;8.596;2023-07-30T08:25:18;99982.94;;;17.63;94.07
55070;BME280;40967;52.070;8.596;2023-07-30T08:27:43;99988.44;;;17.63;94.28
55070;BME280;40967;52.070;8.596;2023-07-30T08:30:09;99977.75;;;17.70;93.92
55070;BME280;40967;52.070;8.596;2023-07-30T08:32:35;99990.63;;;17.78;93.71
55070;BME280;40967;52.070;8.596;2023-07-30T08:35:04;99978.97;;;17.81;94.40
55070;BME280;40967;52.070;8.596;2023-07-30T08:37:30;99982.72;;;17.77;94.14
55070;BME280;40967;52.070;8.596;2023-07-30T08:39:55;99982.44;;;17.70;94.42
55070;BME280;40967;52.070;8.596;2023-07-30T08:42:20;99994.38;;;17.65;94.51
55070;BME280;40967;52.070;8.596;2023-07-30T08:44:46;99998.59;;;17.63;95.15
55070;BME280;40967;52.070;8.596;2023-07-30T08:47:11;99994.38;;;17.65;95.24
55070;BME280;40967;52.070;8.596;2023-07-30T08:49:37;99991.47;;;17.70;94.86
55070;BME280;40967;52.070;8.596;2023-07-30T08:52:03;99994.22;;;17.70;94.83
55070;BME280;40967;52.070;8.596;2023-07-30T08:54:30;99997.91;;;17.66;94.70
55070;BME280;40967;52.070;8.596;2023-07-30T08:56:57;100006.22;;;17.49;95.05
55070;BME280;40967;52.070;8.596;2023-07-30T08:59:24;100015.88;;;17.46;95.61
55070;BME280;40967;52.070;8.596;2023-07-30T09:01:51;100005.41;;;17.31;96.62
55070;BME280;40967;52.070;8.596;2023-07-30T09:04:18;100004.66;;;17.14;97.85
55070;BME280;40967;52.070;8.596;2023-07-30T09:06:47;100004.81;;;17.09;98.80
55070;BME280;40967;52.070;8.596;2023-07-30T09:09:13;100013.38;;;17.07;99.74
55070;BME280;40967;52.070;8.596;2023-07-30T09:11:39;100002.56;;;17.02;99.99
55070;BME280;40967;52.070;8.596;2023-07-30T09:14:06;100019.03;;;17.02;100.00
55070;BME280;40967;52.070;8.596;2023-07-30T09:16:31;100021.59;;;17.07;100.00
55070;BME280;40967;52.070;8.596;2023-07-30T09:18:57;100016.59;;;17.09;99.91
55070;BME280;40967;52.070;8.596;2023-07-30T09:21:30;100027.22;;;17.19;99.83
55070;BME280;40967;52.070;8.596;2023-07-30T09:23:56;100022.88;;;17.18;100.00
55070;BME280;40967;52.070;8.596;2023-07-30T09:26:21;100033.84;;;17.18;99.91
55070;BME280;40967;52.070;8.596;2023-07-30T09:28:47;100028.38;;;17.18;100.00
55070;BME280;40967;52.070;8.596;2023-07-30T09:31:15;100028.03;;;17.20;100.00
55070;BME280;40967;52.070;8.596;2023-07-30T09:33:41;100032.03;;;17.22;99.91
55070;BME280;40967;52.070;8.596;2023-07-30T09:36:08;100036.09;;;17.25;99.52
55070;BME280;40967;52.070;8.596;2023-07-30T09:38:41;100042.22;;;17.22;99.67
55070;BME280;40967;52.070;8.596;2023-07-30T09:41:11;100030.13;;;17.23;99.71
55070;BME280;40967;52.070;8.596;2023-07-30T09:43:37;100043.34;;;17.21;98.71
55070;BME280;40967;52.070;8.596;2023-07-30T09:46:03;100038.84;;;17.16;99.18
55070;BME280;40967;52.070;8.596;2023-07-30T09:48:32;100041.91;;;17.15;99.44
55070;BME280;40967;52.070;8.596;2023-07-30T09:51:02;100053.97;;;17.22;99.42
55070;BME280;40967;52.070;8.596;2023-07-30T09:53:30;100052.88;;;17.23;99.18
55070;BME280;40967;52.070;8.596;2023-07-30T09:55:59;100052.22;;;17.26;99.35
55070;BME280;40967;52.070;8.596;2023-07-30T09:58:25;100054.28;;;17.29;99.79
55070;BME280;40967;52.070;8.596;2023-07-30T10:00:51;100053.00;;;17.35;100.00
55070;BME280;40967;52.070;8.596;2023-07-30T10:03:17;100057.19;;;17.41;99.98
55070;BME280;40967;52.070;8.596;2023-07-30T10:05:44;100055.09;;;17.47;99.76
55070;BME280;40967;52.070;8.596;2023-07-30T10:08:14;100057.50;;;17.57;99.29
55070;BME280;40967;52.070;8.596;2023-07-30T10:10:42;100072.16;;;17.69;99.21
55070;BME280;40967;52.070;8.596;2023-07-30T10:13:09;100062.59;;;17.84;98.10
55070;BME280;40967;52.070;8.596;2023-07-30T10:15:37;100049.13;;;17.99;97.13
55070;BME280;40967;52.070;8.596;2023-07-30T10:18:03;100051.31;;;18.14;95.99
55070;BME280;40967;52.070;8.596;2023-07-30T10:20:30;100059.78;;;18.30;95.51
55070;BME280;40967;52.070;8.596;2023-07-30T10:22:57;100046.78;;;18.48;93.97
55070;BME280;40967;52.070;8.596;2023-07-30T10:25:43;100048.09;;;18.71;92.96
55070;BME280;40967;52.070;8.596;2023-07-30T10:31:01;100045.06;;;19.05;90.47
55070;BME280;40967;52.070;8.596;2023-07-30T10:33:52;100051.22;;;19.22;89.46
55070;BME280;40967;52.070;8.596;2023-07-30T10:39:34;100053.22;;;19.13;88.61
55070;BME280;40967;52.070;8.596;2023-07-30T10:42:00;100049.16;;;19.19;88.58
55070;BME280;40967;52.070;8.596;2023-07-30T10:44:33;100028.75;;;19.20;88.01
55070;BME280;40967;52.070;8.596;2023-07-30T10:47:00;100045.00;;;19.46;87.41
55070;BME280;40967;52.070;8.596;2023-07-30T10:49:27;100039.13;;;19.68;86.25
55070;BME280;40967;52.070;8.596;2023-07-30T10:51:54;100031.34;;;19.82;85.53
55070;BME280;40967;52.070;8.596;2023-07-30T10:54:20;100037.75;;;19.98;84.68
55070;BME280;40967;52.070;8.596;2023-07-30T10:56:45;100033.19;;;20.14;83.92
55070;BME280;40967;52.070;8.596;2023-07-30T10:59:12;100031.97;;;20.36;82.15
55070;BME280;40967;52.070;8.596;2023-07-30T11:01:39;100029.09;;;20.33;81.40
55070;BME280;40967;52.070;8.596;2023-07-30T11:04:13;100026.81;;;20.35;80.01
55070;BME280;40967;52.070;8.596;2023-07-30T11:06:38;100028.88;;;20.25;79.80
55070;BME280;40967;52.070;8.596;2023-07-30T11:09:05;100040.47;;;20.31;79.99
55070;BME280;40967;52.070;8.596;2023-07-30T11:11:33;100038.25;;;20.24;79.26
55070;BME280;40967;52.070;8.596;2023-07-30T11:13:59;100030.34;;;20.23;78.14
55070;BME280;40967;52.070;8.596;2023-07-30T11:16:25;100025.63;;;19.99;77.83
55070;BME280;40967;52.070;8.596;2023-07-30T11:18:50;100035.72;;;20.07;78.57
55070;BME280;40967;52.070;8.596;2023-07-30T11:21:17;100029.78;;;20.17;78.96
55070;BME280;40967;52.070;8.596;2023-07-30T11:23:44;100026.09;;;20.38;78.03
55070;BME280;40967;52.070;8.596;2023-07-30T11:26:17;100020.91;;;20.60;76.94
55070;BME280;40967;52.070;8.596;2023-07-30T11:28:43;100026.03;;;20.74;76.68
55070;BME280;40967;52.070;8.596;2023-07-30T11:31:16;100026.09;;;20.89;75.66
55070;BME280;40967;52.070;8.596;2023-07-30T11:33:43;100029.59;;;21.14;74.75
55070;BME280;40967;52.070;8.596;2023-07-30T11:36:11;100023.97;;;21.10;73.99
55070;BME280;40967;52.070;8.596;2023-07-30T11:38:38;100011.59;;;21.04;72.59
55070;BME280;40967;52.070;8.596;2023-07-30T11:41:04;100017.19;;;21.08;71.84
55070;BME280;40967;52.070;8.596;2023-07-30T11:43:30;100016.00;;;21.21;71.22
55070;BME280;40967;52.070;8.596;2023-07-30T11:46:26;100025.28;;;21.44;70.14
55070;BME280;40967;52.070;8.596;2023-07-30T11:48:53;100015.53;;;21.62;69.44
55070;BME280;40967;52.070;8.596;2023-07-30T11:51:20;100017.16;;;21.63;69.31
55070;BME280;40967;52.070;8.596;2023-07-30T11:53:59;100010.91;;;21.66;68.17
55070;BME280;40967;52.070;8.596;2023-07-30T11:56:31;100010.50;;;21.80;67.15
55070;BME280;40967;52.070;8.596;2023-07-30T11:59:01;100012.53;;;21.98;66.48
55070;BME280;40967;52.070;8.596;2023-07-30T12:01:30;100008.09;;;22.09;66.56
55070;BME280;40967;52.070;8.596;2023-07-30T12:03:57;100010.84;;;22.09;65.28
55070;BME280;40967;52.070;8.596;2023-07-30T12:06:23;100012.88;;;22.12;64.51
55070;BME280;40967;52.070;8.596;2023-07-30T12:08:49;100013.53;;;22.06;64.07
55070;BME280;40967;52.070;8.596;2023-07-30T12:11:17;100012.69;;;21.74;63.92
55070;BME280;40967;52.070;8.596;2023-07-30T12:13:46;100020.06;;;21.55;63.44
55070;BME280;40967;52.070;8.596;2023-07-30T12:16:12;100006.59;;;21.37;62.77
55070;BME280;40967;52.070;8.596;2023-07-30T12:18:38;100023.25;;;21.41;62.74
55070;BME280;40967;52.070;8.596;2023-07-30T12:21:05;100028.97;;;21.48;62.51
55070;BME280;40967;52.070;8.596;2023-07-30T12:23:33;100033.16;;;21.42;63.53
55070;BME280;40967;52.070;8.596;2023-07-30T12:25:59;100035.72;;;21.35;64.47
55070;BME280;40967;52.070;8.596;2023-07-30T12:28:26;100033.59;;;21.16;65.39
55070;BME280;40967;52.070;8.596;2023-07-30T12:30:52;100025.78;;;21.18;65.04
55070;BME280;40967;52.070;8.596;2023-07-30T12:33:17;100027.34;;;21.31;64.73
55070;BME280;40967;52.070;8.596;2023-07-30T12:35:44;100032.19;;;21.50;65.16
55070;BME280;40967;52.070;8.596;2023-07-30T12:38:09;100027.50;;;21.66;64.73
55070;BME280;40967;52.070;8.596;2023-07-30T12:40:34;100024.84;;;21.85;64.33
55070;BME280;40967;52.070;8.596;2023-07-30T12:43:01;100028.16;;;21.91;64.33
55070;BME280;40967;52.070;8.596;2023-07-30T12:45:28;100017.72;;;22.00;63.82
55070;BME280;40967;52.070;8.596;2023-07-30T12:47:53;100018.53;;;22.00;63.12
55070;BME280;40967;52.070;8.596;2023-07-30T12:50:18;100019.50;;;22.08;62.84
55070;BME280;40967;52.070;8.596;2023-07-30T12:52:44;100016.34;;;22.25;62.89
55070;BME280;40967;52.070;8.596;2023-07-30T12:55:09;100030.25;;;22.28;62.13